Time;durP1;ratioP1;P1;durP2;ratioP2;P2;SDS_P1;SDS_P2;PMS_P1;PMS_P2;Temp;Humidity;BMP_temperature;BMP_pressure;BME280_temperature;BME280_humidity;BME280_pressure;Samples;Min_cycle;Max_cycle;Signal;HPM_P1;HPM_P2
2021/06/22 00:02:06;;;;;;;66.05;61.65;;;12.60;99.90;;;;;;5033233;28;20037;-67
2021/06/22 00:04:33;;;;;;;55.80;51.70;;;12.60;99.90;;;;;;5033424;28;20486;-66
2021/06/22 00:07:00;;;;;;;64.10;59.55;;;12.70;99.90;;;;;;5033330;28;20025;-67
2021/06/22 00:09:27;;;;;;;59.28;54.97;;;12.80;99.90;;;;;;5033211;28;20053;-68
2021/06/22 00:11:55;;;;;;;61.75;57.35;;;13.00;99.90;;;;;;5031873;28;20029;-67
2021/06/22 00:14:22;;;;;;;63.90;59.50;;;13.20;99.90;;;;;;5032634;28;20461;-67
2021/06/22 00:16:49;;;;;;;64.05;59.45;;;13.50;99.90;;;;;;5031739;28;20025;-67
2021/06/22 00:19:17;;;;;;;62.35;57.75;;;13.60;99.90;;;;;;5031783;28;20033;-67
2021/06/22 00:21:44;;;;;;;53.17;48.90;;;13.70;99.90;;;;;;5032956;28;20018;-65
2021/06/22 00:24:11;;;;;;;50.80;46.60;;;13.80;99.90;;;;;;5032946;28;20020;-63
2021/06/22 00:26:39;;;;;;;53.03;48.67;;;14.00;99.90;;;;;;5033055;28;20032;-64
2021/06/22 00:29:06;;;;;;;50.40;46.42;;;14.10;99.90;;;;;;5033040;28;20025;-65
2021/06/22 00:31:33;;;;;;;61.10;56.70;;;14.10;99.90;;;;;;5032967;28;20552;-64
2021/06/22 00:34:01;;;;;;;61.72;57.05;;;14.20;99.90;;;;;;5032918;28;20022;-65
2021/06/22 00:36:28;;;;;;;62.22;57.88;;;14.30;99.90;;;;;;5032983;28;20026;-65
2021/06/22 00:38:55;;;;;;;51.67;47.50;;;14.40;99.90;;;;;;5033037;28;20032;-65
2021/06/22 00:41:22;;;;;;;67.60;63.08;;;14.40;99.90;;;;;;5032954;28;20390;-65
2021/06/22 00:43:50;;;;;;;54.72;50.63;;;14.40;99.90;;;;;;5032911;28;20026;-65
2021/06/22 00:46:17;;;;;;;53.55;49.45;;;14.50;99.90;;;;;;5032864;28;20026;-65
2021/06/22 00:48:45;;;;;;;52.72;48.63;;;14.60;99.90;;;;;;5032887;28;20021;-65
2021/06/22 00:51:12;;;;;;;52.33;48.40;;;14.70;99.90;;;;;;5032881;28;20109;-65
2021/06/22 00:53:40;;;;;;;64.47;60.17;;;14.70;99.90;;;;;;5032610;28;20029;-65
2021/06/22 00:56:07;;;;;;;62.47;57.83;;;14.70;99.90;;;;;;5032697;28;20390;-65
2021/06/22 00:58:34;;;;;;;63.15;59.05;;;14.80;99.90;;;;;;5032811;28;20024;-64
2021/06/22 01:01:02;;;;;;;63.65;59.47;;;14.90;99.90;;;;;;5032721;28;20022;-65
2021/06/22 01:03:29;;;;;;;62.58;58.47;;;15.00;99.90;;;;;;5032765;28;20030;-65
2021/06/22 01:05:57;;;;;;;54.47;50.78;;;15.00;99.90;;;;;;5032713;28;20021;-65
2021/06/22 01:08:26;;;;;;;67.32;63.22;;;15.20;99.90;;;;;;5032770;28;20025;-65
2021/06/22 01:10:54;;;;;;;67.63;63.53;;;15.30;99.90;;;;;;5032675;28;20022;-65
2021/06/22 01:13:21;;;;;;;65.53;61.33;;;15.40;99.90;;;;;;5032586;28;20022;-65
2021/06/22 01:15:48;;;;;;;64.28;60.05;;;15.50;99.90;;;;;;5032568;28;20034;-65
2021/06/22 01:18:17;;;;;;;68.40;63.88;;;15.50;99.90;;;;;;5032661;28;20028;-65
2021/06/22 01:20:44;;;;;;;67.53;63.17;;;15.30;99.90;;;;;;5032573;28;20087;-64
2021/06/22 01:23:12;;;;;;;60.53;56.10;;;15.20;99.90;;;;;;5032552;28;20092;-65
2021/06/22 01:25:39;;;;;;;61.38;57.17;;;15.30;99.90;;;;;;5033857;28;20077;-64
2021/06/22 01:28:08;;;;;;;56.30;52.30;;;15.20;99.90;;;;;;5036285;28;20026;-65
2021/06/22 01:30:35;;;;;;;58.00;53.90;;;15.30;99.90;;;;;;5034916;28;20037;-65
2021/06/22 01:33:05;;;;;;;58.10;54.05;;;15.30;99.90;;;;;;5036241;28;20036;-64
2021/06/22 01:35:33;;;;;;;56.33;52.53;;;15.30;99.90;;;;;;5036133;28;20026;-64
2021/06/22 01:38:10;;;;;;;54.85;50.90;;;15.30;99.90;;;;;;5036128;28;20018;-64
2021/06/22 01:40:50;;;;;;;56.97;53.28;;;15.40;99.90;;;;;;5036049;28;20036;-64
2021/06/22 01:43:18;;;;;;;73.88;69.60;;;15.60;99.90;;;;;;5036102;28;20447;-65
2021/06/22 01:45:47;;;;;;;54.50;50.78;;;15.60;99.90;;;;;;5036022;28;20029;-65
2021/06/22 01:48:14;;;;;;;55.92;52.35;;;16.00;99.90;;;;;;5035943;28;20029;-65
2021/06/22 01:50:42;;;;;;;49.67;46.40;;;16.00;99.90;;;;;;5035950;28;20025;-64
2021/06/22 01:53:09;;;;;;;49.83;46.55;;;16.10;99.90;;;;;;5035911;28;20026;-64
2021/06/22 01:55:38;;;;;;;49.60;46.40;;;16.20;99.90;;;;;;5035503;28;20052;-64
2021/06/22 01:58:13;;;;;;;45.47;42.15;;;16.40;99.90;;;;;;5035637;28;20112;-65
2021/06/22 02:00:42;;;;;;;46.10;43.20;;;16.50;99.90;;;;;;5035746;28;20021;-65
2021/06/22 02:03:16;;;;;;;43.63;40.55;;;16.60;99.90;;;;;;5035720;28;20482;-65
2021/06/22 02:05:44;;;;;;;44.53;41.83;;;16.70;99.90;;;;;;5035573;28;20026;-66
2021/06/22 02:08:12;;;;;;;48.58;45.50;;;16.60;99.90;;;;;;5035657;28;20025;-65
2021/06/22 02:10:39;;;;;;;45.55;42.70;;;16.40;99.90;;;;;;5035542;28;20486;-65
2021/06/22 02:13:07;;;;;;;49.50;46.50;;;16.20;99.90;;;;;;5035494;28;20494;-65
2021/06/22 02:15:34;;;;;;;47.83;45.03;;;16.20;99.90;;;;;;5035318;28;20025;-65
2021/06/22 02:18:02;;;;;;;45.58;42.67;;;16.30;99.90;;;;;;5035343;28;20096;-65
2021/06/22 02:20:30;;;;;;;49.47;46.45;;;16.30;99.90;;;;;;5035562;28;20032;-64
2021/06/22 02:22:57;;;;;;;44.90;42.20;;;16.30;99.90;;;;;;5035220;28;20014;-65
2021/06/22 02:25:25;;;;;;;44.00;41.20;;;16.40;99.90;;;;;;5035174;28;20517;-65
2021/06/22 02:28:05;;;;;;;43.72;41.13;;;16.80;99.90;;;;;;5035181;28;20053;-64
2021/06/22 02:30:33;;;;;;;39.53;37.22;;;17.00;99.90;;;;;;5035093;28;20025;-65
2021/06/22 02:33:02;;;;;;;38.67;36.53;;;17.00;99.90;;;;;;5035063;28;20032;-65
2021/06/22 02:35:29;;;;;;;39.65;37.45;;;17.20;99.90;;;;;;5034831;28;20052;-65
2021/06/22 02:37:57;;;;;;;39.03;36.92;;;17.00;99.90;;;;;;5034298;28;20021;-65
2021/06/22 02:40:26;;;;;;;38.72;36.63;;;17.20;99.90;;;;;;5034929;28;20029;-65
2021/06/22 02:42:54;;;;;;;38.70;36.60;;;17.20;99.90;;;;;;5034734;28;20029;-64
2021/06/22 02:45:22;;;;;;;38.83;36.50;;;17.40;99.90;;;;;;5034763;28;20410;-65
2021/06/22 02:47:49;;;;;;;40.85;38.55;;;17.10;99.90;;;;;;5034660;28;20026;-65
2021/06/22 02:50:20;;;;;;;39.70;37.40;;;16.80;99.90;;;;;;5034711;28;20032;-65
2021/06/22 02:52:49;;;;;;;40.17;37.97;;;16.70;99.90;;;;;;5034929;28;20448;-65
2021/06/22 02:55:20;;;;;;;39.65;37.45;;;16.50;99.90;;;;;;5034544;28;20051;-67
2021/06/22 02:57:50;;;;;;;43.13;40.85;;;16.50;99.90;;;;;;5034593;28;20025;-65
2021/06/22 03:00:20;;;;;;;45.42;43.03;;;16.50;99.90;;;;;;5034364;28;20017;-64
2021/06/22 03:02:47;;;;;;;;;;;16.60;99.90;;;;;;5034641;28;20029;-65
2021/06/22 03:05:14;;;;;;;40.53;38.22;;;16.50;99.90;;;;;;5034249;28;19905;-64
2021/06/22 03:07:42;;;;;;;39.85;37.55;;;16.50;99.90;;;;;;5034329;28;20104;-65
2021/06/22 03:10:11;;;;;;;41.45;39.05;;;16.50;99.90;;;;;;5032958;28;20017;-64
2021/06/22 03:12:39;;;;;;;39.90;37.70;;;16.40;99.90;;;;;;5034193;28;20026;-65
2021/06/22 03:15:11;;;;;;;39.03;36.72;;;16.50;99.90;;;;;;5032757;28;20028;-64
2021/06/22 03:17:38;;;;;;;37.47;35.28;;;16.60;99.90;;;;;;5034234;28;20075;-64
2021/06/22 03:20:08;;;;;;;38.15;36.05;;;16.90;99.90;;;;;;5034328;28;20101;-64
2021/06/22 03:22:36;;;;;;;38.97;36.65;;;17.40;99.90;;;;;;5034044;28;20029;-64
2021/06/22 03:25:05;;;;;;;37.55;35.50;;;17.10;99.90;;;;;;5034080;28;20387;-64
2021/06/22 03:27:32;;;;;;;38.38;36.30;;;17.00;99.90;;;;;;5033985;28;20014;-64
2021/06/22 03:30:00;;;;;;;39.13;36.95;;;17.00;99.90;;;;;;5033968;28;20018;-64
2021/06/22 03:32:27;;;;;;;36.08;34.08;;;17.20;99.90;;;;;;5033834;28;20017;-67
2021/06/22 03:34:55;;;;;;;38.40;36.50;;;17.50;99.90;;;;;;5033887;28;20069;-64
2021/06/22 03:37:22;;;;;;;37.72;35.92;;;17.80;99.90;;;;;;5034065;28;20018;-64
2021/06/22 03:39:49;;;;;;;33.90;32.30;;;18.10;99.90;;;;;;5033730;28;20029;-64
2021/06/22 03:42:17;;;;;;;30.85;29.25;;;18.40;99.90;;;;;;5033692;28;20103;-64
2021/06/22 03:44:44;;;;;;;30.70;29.08;;;18.10;99.90;;;;;;5033651;28;20067;-64
2021/06/22 03:47:12;;;;;;;31.00;29.45;;;17.90;99.90;;;;;;5033688;28;20029;-65
2021/06/22 03:49:40;;;;;;;27.70;26.25;;;18.10;99.90;;;;;;5032689;28;20025;-64
2021/06/22 03:52:07;;;;;;;25.33;24.13;;;18.10;99.90;;;;;;5033510;28;20026;-64
2021/06/22 03:54:34;;;;;;;23.13;21.90;;;18.40;99.90;;;;;;5033433;28;20053;-64
2021/06/22 03:57:02;;;;;;;22.00;20.80;;;18.30;99.90;;;;;;5033371;28;20033;-66
2021/06/22 03:59:29;;;;;;;20.70;19.70;;;18.30;99.90;;;;;;5033394;28;20104;-64
2021/06/22 04:01:56;;;;;;;18.50;17.60;;;18.50;99.90;;;;;;5033470;28;20026;-65
2021/06/22 04:04:23;;;;;;;17.98;17.10;;;18.30;99.90;;;;;;5033432;28;20048;-66
2021/06/22 04:06:51;;;;;;;17.20;16.35;;;18.20;99.90;;;;;;5033311;28;20421;-66
2021/06/22 04:09:25;;;;;;;19.33;18.48;;;18.20;99.90;;;;;;5033345;28;20101;-66
2021/06/22 04:11:55;;;;;;;18.33;17.52;;;18.20;99.90;;;;;;5033297;28;20478;-66
2021/06/22 04:14:22;;;;;;;18.77;17.87;;;18.10;99.90;;;;;;5033278;28;20430;-66
2021/06/22 04:16:49;;;;;;;18.45;17.60;;;18.00;99.90;;;;;;5033035;28;20021;-66
2021/06/22 04:19:17;;;;;;;17.65;16.85;;;17.80;99.90;;;;;;5033010;28;20486;-66
2021/06/22 04:21:45;;;;;;;16.20;15.32;;;17.70;99.90;;;;;;5033135;28;20053;-66
2021/06/22 04:24:12;;;;;;;16.70;16.00;;;17.70;99.90;;;;;;5033144;28;20021;-65
2021/06/22 04:26:40;;;;;;;17.25;16.48;;;17.60;99.90;;;;;;5032995;28;20120;-66
2021/06/22 04:29:07;;;;;;;18.45;17.55;;;17.60;99.90;;;;;;5033114;28;20033;-66
2021/06/22 04:31:35;;;;;;;18.90;18.00;;;17.60;99.90;;;;;;5033113;28;20394;-66
2021/06/22 04:34:03;;;;;;;18.77;17.88;;;17.50;99.90;;;;;;5032939;28;20024;-66
2021/06/22 04:36:30;;;;;;;17.85;17.15;;;17.40;99.90;;;;;;5031483;28;20040;-66
2021/06/22 04:38:58;;;;;;;18.98;18.15;;;17.40;99.90;;;;;;5032866;28;20018;-66
2021/06/22 04:41:25;;;;;;;19.77;18.95;;;17.30;99.90;;;;;;5032854;28;20075;-66
2021/06/22 04:43:52;;;;;;;21.55;20.65;;;17.40;99.90;;;;;;5032927;28;20487;-66
2021/06/22 04:46:20;;;;;;;22.40;21.33;;;17.30;99.90;;;;;;5032826;28;20024;-66
2021/06/22 04:48:47;;;;;;;22.77;21.77;;;17.20;99.90;;;;;;5032897;28;20104;-66
2021/06/22 04:51:15;;;;;;;24.10;23.00;;;17.30;99.90;;;;;;5031483;28;20505;-66
2021/06/22 04:53:42;;;;;;;23.55;22.40;;;17.50;99.90;;;;;;5032471;28;20036;-66
2021/06/22 04:56:09;;;;;;;21.48;20.33;;;17.50;99.90;;;;;;5032633;28;20040;-66
2021/06/22 04:58:37;;;;;;;21.83;20.60;;;17.30;99.90;;;;;;5032701;28;20375;-65
2021/06/22 05:01:08;;;;;;;21.90;20.90;;;17.10;99.90;;;;;;5035362;28;20017;-66
2021/06/22 05:03:35;;;;;;;;;;;17.10;99.90;;;;;;5037107;28;20098;-65
2021/06/22 05:06:03;;;;;;;23.13;21.38;;;17.10;99.90;;;;;;5036635;28;20366;-65
2021/06/22 05:08:30;;;;;;;22.98;21.88;;;17.00;99.90;;;;;;5036755;28;20108;-65
2021/06/22 05:10:58;;;;;;;25.17;24.02;;;16.80;99.90;;;;;;5036515;28;20032;-65
2021/06/22 05:13:25;;;;;;;27.50;25.80;;;16.80;99.90;;;;;;5036573;28;20394;-65
2021/06/22 05:15:52;;;;;;;27.33;26.13;;;16.70;99.90;;;;;;5036300;28;20025;-66
2021/06/22 05:18:20;;;;;;;28.38;26.80;;;16.60;99.90;;;;;;5036472;28;20033;-66
2021/06/22 05:20:47;;;;;;;30.52;28.52;;;16.50;99.90;;;;;;5035131;28;20489;-65
2021/06/22 05:23:14;;;;;;;32.30;30.35;;;16.40;99.90;;;;;;5036416;28;20031;-66
2021/06/22 05:25:42;;;;;;;33.85;31.95;;;16.20;99.90;;;;;;5036258;28;20025;-65
2021/06/22 05:28:09;;;;;;;37.38;35.28;;;16.30;99.90;;;;;;5036242;28;20021;-66
2021/06/22 05:30:36;;;;;;;38.97;36.67;;;16.20;99.90;;;;;;5036164;28;20083;-65
2021/06/22 05:33:04;;;;;;;39.55;37.25;;;16.10;99.90;;;;;;5036188;28;20075;-65
2021/06/22 05:35:33;;;;;;;36.55;34.17;;;16.10;99.90;;;;;;5034621;28;20083;-65
2021/06/22 05:38:00;;;;;;;36.03;33.92;;;16.00;99.90;;;;;;5036052;28;20025;-65
2021/06/22 05:40:28;;;;;;;36.15;34.33;;;16.10;99.90;;;;;;5034670;28;20021;-65
2021/06/22 05:42:55;;;;;;;35.35;33.30;;;15.90;99.90;;;;;;5034588;28;20067;-65
2021/06/22 05:45:23;;;;;;;37.08;34.67;;;15.90;99.90;;;;;;5034609;28;20542;-66
2021/06/22 05:47:50;;;;;;;38.47;35.92;;;15.90;99.90;;;;;;5035890;28;20071;-65
2021/06/22 05:50:17;;;;;;;37.75;35.58;;;15.90;99.90;;;;;;5035765;28;20071;-66
2021/06/22 05:52:45;;;;;;;37.03;34.72;;;15.80;99.90;;;;;;5035731;28;20044;-66
2021/06/22 05:55:16;;;;;;;40.25;37.75;;;15.60;99.90;;;;;;5035312;28;20119;-66
2021/06/22 05:57:49;;;;;;;37.28;34.95;;;15.50;99.90;;;;;;5035692;28;20386;-66
2021/06/22 06:00:18;;;;;;;37.78;35.50;;;15.40;99.90;;;;;;5035552;28;20553;-66
2021/06/22 06:02:45;;;;;;;38.50;36.20;;;15.40;99.90;;;;;;5035504;28;20417;-66
2021/06/22 06:05:13;;;;;;;38.05;35.88;;;15.30;99.90;;;;;;5035476;28;20069;-66
2021/06/22 06:07:41;;;;;;;38.83;36.33;;;15.30;99.90;;;;;;5035463;28;20017;-66
2021/06/22 06:10:09;;;;;;;42.97;40.20;;;15.20;99.90;;;;;;5035449;28;20029;-65
2021/06/22 06:12:36;;;;;;;40.03;37.53;;;15.10;99.90;;;;;;5034427;28;20417;-65
2021/06/22 06:15:06;;;;;;;41.38;38.83;;;15.10;99.90;;;;;;5035684;28;20104;-66
2021/06/22 06:17:33;;;;;;;42.33;39.83;;;15.00;99.90;;;;;;5035292;28;20532;-65
2021/06/22 06:20:01;;;;;;;42.22;39.55;;;14.90;99.90;;;;;;5033792;28;20034;-65
2021/06/22 06:22:29;;;;;;;47.75;44.67;;;14.80;99.90;;;;;;5035133;28;20057;-65
2021/06/22 06:24:59;;;;;;;43.63;41.00;;;14.70;99.90;;;;;;5035161;28;20379;-65
2021/06/22 06:27:38;;;;;;;;;;;14.90;99.90;;;;;;5035450;28;20071;-65
2021/06/22 06:30:13;;;;;;;46.88;43.88;;;14.50;99.90;;;;;;5035188;28;20026;-66
2021/06/22 06:32:40;;;;;;;48.28;45.42;;;14.40;99.90;;;;;;5035046;28;20053;-66
2021/06/22 06:35:08;;;;;;;50.92;47.88;;;14.20;99.90;;;;;;5034947;28;20036;-66
2021/06/22 06:37:36;;;;;;;50.67;47.58;;;14.20;99.90;;;;;;5034988;28;20109;-66
2021/06/22 06:40:04;;;;;;;49.53;46.22;;;14.10;99.90;;;;;;5034741;28;20025;-65
2021/06/22 06:42:32;;;;;;;47.70;44.58;;;14.10;99.90;;;;;;5034546;28;20418;-68
2021/06/22 06:44:59;;;;;;;50.28;47.05;;;14.00;99.90;;;;;;5034867;28;20419;-66
2021/06/22 06:47:26;;;;;;;47.60;44.70;;;14.00;99.90;;;;;;5034724;28;20025;-65
2021/06/22 06:49:54;;;;;;;46.88;43.53;;;13.90;99.90;;;;;;5034580;28;20022;-65
2021/06/22 06:52:21;;;;;;;47.67;44.42;;;13.80;99.90;;;;;;5033128;28;20026;-65
2021/06/22 06:54:48;;;;;;;47.63;44.45;;;13.80;99.90;;;;;;5034244;28;20037;-66
2021/06/22 06:57:16;;;;;;;48.08;44.97;;;13.80;99.90;;;;;;5034401;28;20524;-66
2021/06/22 06:59:43;;;;;;;47.63;44.53;;;13.70;99.90;;;;;;5033260;28;20029;-67
2021/06/22 07:02:11;;;;;;;47.97;44.72;;;13.60;99.90;;;;;;5034396;28;20017;-68
2021/06/22 07:04:38;;;;;;;50.17;46.20;;;13.50;99.90;;;;;;5034458;28;20335;-68
2021/06/22 07:07:05;;;;;;;49.25;46.15;;;13.40;99.90;;;;;;5034310;28;20025;-68
2021/06/22 07:09:33;;;;;;;48.35;45.35;;;13.30;99.90;;;;;;5034420;28;20108;-68
2021/06/22 07:12:01;;;;;;;47.95;44.55;;;13.20;99.90;;;;;;5034281;28;20025;-68
2021/06/22 07:14:29;;;;;;;49.30;46.20;;;13.20;99.90;;;;;;5034420;28;20037;-67
2021/06/22 07:16:56;;;;;;;49.53;45.97;;;13.10;99.90;;;;;;5034099;28;20422;-67
2021/06/22 07:19:23;;;;;;;52.50;49.10;;;13.00;99.90;;;;;;5034066;28;20048;-67
2021/06/22 07:21:51;;;;;;;51.72;48.33;;;13.00;99.90;;;;;;5033988;28;20064;-68
2021/06/22 07:24:18;;;;;;;52.05;48.40;;;12.80;99.90;;;;;;5032401;28;20022;-67
2021/06/22 07:26:45;;;;;;;92.60;85.57;;;12.80;99.90;;;;;;5034170;28;20033;-67
2021/06/22 07:29:13;;;;;;;55.78;51.65;;;12.70;99.90;;;;;;5033966;28;20017;-67
2021/06/22 07:31:40;;;;;;;55.78;51.97;;;12.70;99.90;;;;;;5033930;28;20104;-67
2021/06/22 07:34:08;;;;;;;51.78;47.67;;;12.70;99.90;;;;;;5033643;28;20034;-65
2021/06/22 07:36:35;;;;;;;57.38;53.35;;;12.60;99.90;;;;;;5032389;28;20034;-64
2021/06/22 07:39:03;;;;;;;52.53;48.53;;;12.60;99.90;;;;;;5033698;28;20037;-62
2021/06/22 07:41:30;;;;;;;51.35;47.40;;;12.50;99.90;;;;;;5033669;28;20022;-66
2021/06/22 07:43:57;;;;;;;51.47;47.72;;;12.50;99.90;;;;;;5032126;28;20116;-66
2021/06/22 07:46:25;;;;;;;53.30;49.25;;;12.50;99.90;;;;;;5032588;28;20085;-66
2021/06/22 07:48:53;;;;;;;52.45;48.70;;;12.40;99.90;;;;;;5033906;28;20415;-66
2021/06/22 07:51:20;;;;;;;53.10;49.13;;;12.40;99.90;;;;;;5033649;28;20033;-67
2021/06/22 07:53:47;;;;;;;47.03;43.22;;;12.30;99.90;;;;;;5033352;28;20021;-66
2021/06/22 07:56:15;;;;;;;46.72;43.13;;;12.30;99.90;;;;;;5031952;28;20048;-67
2021/06/22 07:58:42;;;;;;;43.30;39.72;;;12.20;99.90;;;;;;5033475;28;20025;-67
2021/06/22 08:01:10;;;;;;;46.50;42.60;;;12.20;99.90;;;;;;5033297;28;20414;-67
2021/06/22 08:03:37;;;;;;;47.63;43.97;;;12.10;99.90;;;;;;5033258;28;20448;-67
2021/06/22 08:06:05;;;;;;;45.50;41.55;;;12.10;99.90;;;;;;5033183;28;20471;-69
2021/06/22 08:08:32;;;;;;;48.53;44.50;;;12.10;99.90;;;;;;5033206;28;20021;-67
2021/06/22 08:11:00;;;;;;;47.53;43.65;;;12.10;99.90;;;;;;5033219;28;20026;-68
2021/06/22 08:13:27;;;;;;;51.58;47.58;;;12.00;99.90;;;;;;5033177;28;20500;-68
2021/06/22 08:15:56;;;;;;;52.05;47.70;;;12.00;99.90;;;;;;5032930;28;20032;-67
2021/06/22 08:18:23;;;;;;;51.95;47.95;;;12.00;99.90;;;;;;5032938;28;20109;-67
2021/06/22 08:20:52;;;;;;;53.28;49.08;;;12.00;99.90;;;;;;5031667;28;20109;-68
2021/06/22 08:23:21;;;;;;;51.63;47.47;;;11.90;99.90;;;;;;5033046;28;20021;-68
2021/06/22 08:25:49;;;;;;;49.63;45.72;;;11.90;99.90;;;;;;5032970;28;20379;-68
2021/06/22 08:28:16;;;;;;;52.42;48.22;;;11.90;99.90;;;;;;5032924;28;20028;-68
2021/06/22 08:30:44;;;;;;;53.08;48.97;;;11.90;99.90;;;;;;5032994;28;20022;-67
2021/06/22 08:33:12;;;;;;;52.45;48.13;;;11.80;99.90;;;;;;5032809;28;20105;-68
2021/06/22 08:35:41;;;;;;;49.20;44.85;;;11.80;99.90;;;;;;5032254;28;20205;-67
2021/06/22 08:38:11;;;;;;;49.88;45.78;;;11.70;99.90;;;;;;5031670;28;20029;-67
2021/06/22 08:40:41;;;;;;;50.95;46.55;;;11.70;99.90;;;;;;5032898;28;20108;-67
2021/06/22 08:43:11;;;;;;;63.63;58.95;;;11.70;99.90;;;;;;5032764;28;20504;-67
2021/06/22 08:45:40;;;;;;;52.08;47.53;;;11.80;99.90;;;;;;5031394;28;20026;-67
2021/06/22 08:48:11;;;;;;;51.35;47.00;;;11.80;99.90;;;;;;5032726;28;20109;-67
2021/06/22 08:50:42;;;;;;;53.83;49.58;;;11.80;99.90;;;;;;5032767;28;20018;-67
2021/06/22 08:53:12;;;;;;;54.08;49.85;;;11.70;99.90;;;;;;5032698;28;20109;-68
2021/06/22 08:55:40;;;;;;;53.75;49.55;;;11.70;99.90;;;;;;5032405;28;20045;-68
2021/06/22 08:58:11;;;;;;;50.30;46.03;;;11.70;99.90;;;;;;5032562;28;20075;-68
2021/06/22 09:00:39;;;;;;;;;;;11.70;99.90;;;;;;5033072;28;20021;-66
2021/06/22 09:03:13;;;;;;;48.50;44.42;;;11.70;99.90;;;;;;5032609;28;19992;-66
2021/06/22 09:05:43;;;;;;;50.75;46.72;;;11.70;99.90;;;;;;5032772;28;20032;-65
2021/06/22 09:08:25;;;;;;;48.35;44.33;;;11.60;99.90;;;;;;5032618;28;20028;-66
2021/06/22 09:11:03;;;;;;;57.60;53.30;;;11.70;99.90;;;;;;5032590;28;20049;-67
2021/06/22 09:13:31;;;;;;;56.58;52.13;;;11.70;99.90;;;;;;5032744;28;20018;-66
2021/06/22 09:15:59;;;;;;;47.72;43.65;;;11.70;99.90;;;;;;5032503;28;20028;-68
2021/06/22 09:18:26;;;;;;;48.47;44.42;;;11.80;99.90;;;;;;5032417;28;20040;-67
2021/06/22 09:21:06;;;;;;;47.25;43.15;;;11.70;99.90;;;;;;5032412;28;20022;-68
2021/06/22 09:23:37;;;;;;;48.15;44.05;;;11.70;99.90;;;;;;5032496;28;20025;-68
2021/06/22 09:26:14;;;;;;;45.85;41.63;;;11.70;99.90;;;;;;5032384;28;20034;-68
2021/06/22 09:28:42;;;;;;;48.80;44.60;;;11.80;99.90;;;;;;5032407;28;20022;-67
2021/06/22 09:31:12;;;;;;;48.38;44.17;;;11.70;99.90;;;;;;5032311;28;20026;-67
2021/06/22 09:33:51;;;;;;;48.13;44.20;;;11.90;99.90;;;;;;5032544;28;20028;-69
2021/06/22 09:36:27;;;;;;;48.67;44.60;;;12.00;99.90;;;;;;5032218;28;20100;-67
2021/06/22 09:38:57;;;;;;;49.33;45.10;;;12.10;99.90;;;;;;5032253;28;20029;-67
2021/06/22 09:41:32;;;;;;;51.05;46.50;;;12.20;99.90;;;;;;5032273;28;20028;-67
2021/06/22 09:44:08;;;;;;;55.03;50.17;;;12.20;99.90;;;;;;5032167;28;20018;-67
2021/06/22 09:46:36;;;;;;;52.47;48.25;;;12.30;99.90;;;;;;5033525;28;20030;-67
2021/06/22 09:49:06;;;;;;;53.30;48.97;;;12.40;99.90;;;;;;5035871;28;20022;-68
2021/06/22 09:51:57;;;;;;;53.88;49.35;;;12.30;99.90;;;;;;5035827;28;20395;-68
2021/06/22 09:54:25;;;;;;;54.88;50.38;;;12.50;99.90;;;;;;5035504;28;20041;-67
2021/06/22 09:57:03;;;;;;;56.28;51.80;;;12.30;99.90;;;;;;5035595;28;20429;-68
2021/06/22 09:59:48;;;;;;;52.58;48.40;;;12.30;99.90;;;;;;5035616;28;20467;-69
2021/06/22 10:02:16;;;;;;;53.97;49.67;;;12.30;99.90;;;;;;5035578;28;20014;-66
2021/06/22 10:04:54;;;;;;;53.35;49.10;;;12.30;99.90;;;;;;5035535;28;20052;-68
2021/06/22 10:07:24;;;;;;;52.63;48.45;;;12.20;99.90;;;;;;5034289;28;20458;-67
2021/06/22 10:09:59;;;;;;;51.97;47.55;;;12.20;99.90;;;;;;5035642;28;20083;-67
2021/06/22 10:12:29;;;;;;;53.13;48.65;;;12.20;99.90;;;;;;5035555;28;20025;-69
2021/06/22 10:15:03;;;;;;;55.83;51.28;;;12.20;99.90;;;;;;5035475;28;20026;-67
2021/06/22 10:17:32;;;;;;;56.47;51.67;;;12.20;99.90;;;;;;5035290;28;20029;-66
2021/06/22 10:20:01;;;;;;;55.30;50.83;;;12.20;99.90;;;;;;5035332;28;20017;-69
2021/06/22 10:22:31;;;;;;;55.30;51.20;;;12.20;99.90;;;;;;5035276;28;20017;-68
2021/06/22 10:25:00;;;;;;;54.80;50.35;;;12.20;99.90;;;;;;5033735;28;20029;-70
2021/06/22 10:27:29;;;;;;;51.50;47.40;;;12.20;99.90;;;;;;5035084;28;20029;-70
2021/06/22 10:30:03;;;;;;;54.10;49.78;;;12.20;99.90;;;;;;5033714;28;20034;-71
2021/06/22 10:32:31;;;;;;;52.08;47.92;;;12.20;99.90;;;;;;5034968;28;20105;-71
2021/06/22 10:35:01;;;;;;;53.75;49.35;;;12.20;99.90;;;;;;5033595;28;20116;-70
2021/06/22 10:37:34;;;;;;;55.20;50.83;;;12.20;99.90;;;;;;5034875;28;20533;-71
2021/06/22 10:40:24;;;;;;;52.97;48.75;;;12.20;99.90;;;;;;5033641;28;20394;-69
2021/06/22 10:42:55;;;;;;;52.83;48.40;;;12.20;99.90;;;;;;5034758;28;20045;-68
2021/06/22 10:45:23;;;;;;;60.33;55.58;;;12.30;99.90;;;;;;5034745;28;20386;-71
2021/06/22 10:47:54;;;;;;;49.70;45.55;;;12.30;99.90;;;;;;5034704;28;20025;-71
2021/06/22 10:50:23;;;;;;;;;;;12.30;99.90;;;;;;5035061;28;20025;-70
2021/06/22 10:53:01;;;;;;;60.67;56.30;;;12.40;99.90;;;;;;5049828;28;19924;-69
2021/06/22 10:55:32;;;;;;;64.82;60.00;;;12.30;99.90;;;;;;5034253;28;20041;-70
2021/06/22 10:58:06;;;;;;;54.38;49.97;;;12.30;99.90;;;;;;5034116;28;20470;-68
2021/06/22 11:00:51;;;;;;;55.10;50.80;;;12.30;99.90;;;;;;5034484;28;20032;-70
2021/06/22 11:03:34;;;;;;;55.75;51.55;;;12.20;99.90;;;;;;5034439;28;20017;-71
2021/06/22 11:06:04;;;;;;;55.65;51.15;;;12.10;99.90;;;;;;5034430;28;20024;-69
2021/06/22 11:08:32;;;;;;;59.50;54.90;;;12.10;99.90;;;;;;5033125;28;20052;-69
2021/06/22 11:11:00;;;;;;;55.30;51.10;;;12.10;99.90;;;;;;5034202;28;20064;-69
2021/06/22 11:13:33;;;;;;;53.63;49.33;;;12.10;99.90;;;;;;5034308;28;20053;-70
2021/06/22 11:16:02;;;;;;;55.28;50.78;;;12.10;99.90;;;;;;5034122;28;20022;-69
2021/06/22 11:18:55;;;;;;;56.42;51.72;;;12.20;99.90;;;;;;5032741;28;20036;-69
2021/06/22 11:21:46;;;;;;;53.53;49.33;;;12.20;99.90;;;;;;5032597;28;20049;-69
2021/06/22 11:24:14;;;;;;;;;;;12.30;99.90;;;;;;5034470;28;20096;-70
2021/06/22 11:26:48;;;;;;;53.30;48.72;;;12.30;99.90;;;;;;5033950;28;20385;-69
2021/06/22 11:29:42;;;;;;;54.80;50.50;;;12.30;99.90;;;;;;5032571;28;20025;-69
2021/06/22 11:32:10;;;;;;;64.85;59.67;;;12.40;99.90;;;;;;5032366;28;20080;-70
2021/06/22 11:34:54;;;;;;;53.85;49.50;;;12.40;99.90;;;;;;5033712;28;20027;-70
2021/06/22 11:37:24;;;;;;;55.95;51.85;;;12.30;99.90;;;;;;5033649;28;20025;-70
2021/06/22 11:40:12;;;;;;;58.28;53.92;;;12.30;99.90;;;;;;5034320;28;20481;-70
2021/06/22 11:42:42;;;;;;;53.20;48.97;;;12.30;99.90;;;;;;5033688;28;20049;-70
2021/06/22 11:45:15;;;;;;;58.35;53.47;;;12.20;99.90;;;;;;5033519;28;20407;-70
2021/06/22 11:47:49;;;;;;;55.15;50.53;;;12.20;99.90;;;;;;5033811;28;20029;-71
2021/06/22 11:50:25;;;;;;;55.63;51.08;;;12.20;99.90;;;;;;5033577;28;20112;-70
2021/06/22 11:53:02;;;;;;;51.78;47.13;;;12.20;99.90;;;;;;5031521;28;20053;-70
2021/06/22 11:55:31;;;;;;;53.67;49.20;;;12.20;99.90;;;;;;5032844;28;20048;-70
2021/06/22 11:57:59;;;;;;;52.65;47.97;;;12.20;99.90;;;;;;5033180;28;20033;-71
2021/06/22 12:00:32;;;;;;;52.45;48.20;;;12.10;99.90;;;;;;5033269;28;20026;-71
2021/06/22 12:03:08;;;;;;;56.30;51.83;;;12.10;99.90;;;;;;5032019;28;20093;-70
2021/06/22 12:05:38;;;;;;;59.17;54.80;;;11.90;99.90;;;;;;5033246;28;20050;-71
2021/06/22 12:08:10;;;;;;;59.40;55.05;;;11.80;99.90;;;;;;5032067;28;20033;-70
2021/06/22 12:10:55;;;;;;;59.85;55.05;;;11.70;99.90;;;;;;5032189;28;20103;-70
2021/06/22 12:13:42;;;;;;;55.83;51.45;;;11.70;99.90;;;;;;5033208;28;20026;-70
2021/06/22 12:16:30;;;;;;;59.88;54.78;;;11.60;99.90;;;;;;5032929;28;20025;-70
2021/06/22 12:19:05;;;;;;;56.30;52.10;;;11.40;99.90;;;;;;5033020;28;20014;-70
2021/06/22 12:21:34;;;;;;;62.42;57.92;;;11.40;99.90;;;;;;5031520;28;20028;-70
2021/06/22 12:24:09;;;;;;;61.13;56.83;;;11.30;99.90;;;;;;5032811;28;20025;-70
2021/06/22 12:26:40;;;;;;;62.55;58.15;;;11.30;99.90;;;;;;5032793;28;20104;-70
2021/06/22 12:29:30;;;;;;;64.50;60.00;;;11.20;99.90;;;;;;5031449;28;20037;-70
2021/06/22 12:32:01;;;;;;;68.22;63.53;;;11.20;99.90;;;;;;5032768;28;20025;-70
2021/06/22 12:34:31;;;;;;;58.00;53.50;;;11.20;99.90;;;;;;5032921;28;20029;-69
2021/06/22 12:37:00;;;;;;;59.47;54.87;;;11.20;99.90;;;;;;5032670;28;20505;-71
2021/06/22 12:39:37;;;;;;;59.47;54.92;;;11.30;99.90;;;;;;5031328;28;20259;-71
2021/06/22 12:42:07;;;;;;;62.28;57.58;;;11.20;99.90;;;;;;5032778;28;20020;-71